PWSweather.com
Personal Weather Stations
Station Observations
IBAVARIA50
Munich, PlieningDE 85652

MunichPlieningDE 85652

Lat: 48.19916153, Lon: 11.79794312

Elevation: 504

Station Type: Davis Vantage Pro2

http://wetterstation-pliening.info

High Low Average
Temperature 56.9°F13.8°C 53.2°F11.8°C 55.7°F13.2°C
Dew Point 45.9°F7.7°C 41.7°F5.4°C 44.3°F6.8°C
Winds 9.0 mph 14.5 kmh Calm Calm Calm ESECalm ESE
Wind Gusts 15.0 mph24.1 kmh -- 1.0 mph1.6 kmh
Humidity 68% 64% 66%
Pressure 30.06 in1017.9 mb 30.01 in1016.3 mb -
Precipitation 0.44 in11.2 mm - -
Hour Temp Dew Point Humidity Winds Wind Gusts Pressure Precip Precip Rate Daily Precip Total
12:00 AM 56.2°F13.4°C 45.3°F7.4°C 67% Calm Calm -- 30.07 in1018.3 mb 0.02 in0.5 mm 0.00 in0.0 mm 0.02 in0.5 mm
12:05 AM 56.2°F13.4°C 45.3°F7.4°C 67% Calm Calm -- 30.08 in1018.6 mb 0.02 in0.5 mm 0.00 in0.0 mm 0.02 in0.5 mm
12:10 AM 56.3°F13.5°C 45.4°F7.4°C 67% Calm Calm -- 30.07 in1018.3 mb 0.02 in0.5 mm 0.00 in0.0 mm 0.02 in0.5 mm
12:15 AM 56.3°F13.5°C 45.4°F7.4°C 67% 6.0 mph NNE9.7 kmh NNE 9.0 mph14.5 kmh 30.07 in1018.3 mb 0.02 in0.5 mm 0.00 in0.0 mm 0.02 in0.5 mm
12:20 AM 56.2°F13.4°C 45.3°F7.4°C 67% Calm Calm 11.0 mph17.7 kmh 30.08 in1018.6 mb 0.02 in0.5 mm 0.00 in0.0 mm 0.02 in0.5 mm
12:25 AM 56.1°F13.4°C 45.2°F7.3°C 67% 9.0 mph N14.5 kmh N 13.0 mph20.9 kmh 30.08 in1018.6 mb 0.02 in0.5 mm 0.00 in0.0 mm 0.02 in0.5 mm
12:30 AM 56.1°F13.4°C 45.2°F7.3°C 67% 3.0 mph NNE4.8 kmh NNE 12.0 mph19.3 kmh 30.07 in1018.3 mb 0.02 in0.5 mm 0.00 in0.0 mm 0.03 in0.8 mm
12:35 AM 56.1°F13.4°C 45.2°F7.3°C 67% 3.0 mph NE4.8 kmh NE 9.0 mph14.5 kmh 30.07 in1018.3 mb 0.03 in0.8 mm 0.12 in3.0 mm 0.04 in1.0 mm
12:40 AM 56.2°F13.4°C 45.3°F7.4°C 67% Calm Calm 3.0 mph4.8 kmh 30.06 in1017.9 mb 0.03 in0.8 mm 0.00 in0.0 mm 0.04 in1.0 mm
12:45 AM 56.2°F13.4°C 45.3°F7.4°C 67% Calm Calm 13.0 mph20.9 kmh 30.06 in1017.9 mb 0.04 in1.0 mm 0.12 in3.0 mm 0.05 in1.3 mm
12:50 AM 56.2°F13.4°C 45.3°F7.4°C 67% 1.0 mph NE1.6 kmh NE 15.0 mph24.1 kmh 30.05 in1017.6 mb 0.03 in0.8 mm 0.00 in0.0 mm 0.05 in1.3 mm
12:55 AM 56.2°F13.4°C 45.3°F7.4°C 67% 7.0 mph N11.3 kmh N 10.0 mph16.1 kmh 30.06 in1017.9 mb 0.03 in0.8 mm 0.00 in0.0 mm 0.05 in1.3 mm
01:00 AM 56.0°F13.3°C 45.1°F7.3°C 67% 6.0 mph NNE9.7 kmh NNE 7.0 mph11.3 kmh 30.05 in1017.6 mb 0.03 in0.8 mm 0.00 in0.0 mm 0.05 in1.3 mm
01:05 AM 56.0°F13.3°C 45.1°F7.3°C 67% Calm Calm 9.0 mph14.5 kmh 30.06 in1017.9 mb 0.03 in0.8 mm 0.00 in0.0 mm 0.05 in1.3 mm
01:10 AM 56.1°F13.4°C 45.2°F7.3°C 67% Calm Calm -- 30.06 in1017.9 mb 0.02 in0.5 mm 0.00 in0.0 mm 0.05 in1.3 mm
01:15 AM 56.1°F13.4°C 45.2°F7.3°C 67% Calm Calm -- 30.06 in1017.9 mb 0.02 in0.5 mm 0.00 in0.0 mm 0.05 in1.3 mm
01:20 AM 56.2°F13.4°C 45.3°F7.4°C 67% Calm Calm -- 30.06 in1017.9 mb 0.02 in0.5 mm 0.00 in0.0 mm 0.05 in1.3 mm
01:25 AM 56.4°F13.6°C 45.5°F7.5°C 67% Calm Calm -- 30.06 in1017.9 mb 0.02 in0.5 mm 0.00 in0.0 mm 0.05 in1.3 mm
01:30 AM 56.5°F13.6°C 45.2°F7.3°C 66% Calm Calm -- 30.06 in1017.9 mb 0.02 in0.5 mm 0.00 in0.0 mm 0.05 in1.3 mm
01:35 AM 56.6°F13.7°C 45.3°F7.4°C 66% Calm Calm -- 30.06 in1017.9 mb 0.01 in0.3 mm 0.00 in0.0 mm 0.05 in1.3 mm
01:40 AM 56.7°F13.7°C 45.4°F7.4°C 66% Calm Calm -- 30.05 in1017.6 mb 0.01 in0.3 mm 0.00 in0.0 mm 0.05 in1.3 mm
01:45 AM 56.8°F13.8°C 45.5°F7.5°C 66% Calm Calm -- 30.06 in1017.9 mb 0.01 in0.3 mm 0.00 in0.0 mm 0.06 in1.5 mm
01:50 AM 56.8°F13.8°C 45.5°F7.5°C 66% Calm Calm 4.0 mph6.4 kmh 30.05 in1017.6 mb 0.01 in0.3 mm 0.00 in0.0 mm 0.06 in1.5 mm
01:55 AM 56.8°F13.8°C 45.5°F7.5°C 66% Calm Calm -- 30.05 in1017.6 mb 0.01 in0.3 mm 0.00 in0.0 mm 0.06 in1.5 mm
02:00 AM 56.8°F13.8°C 45.5°F7.5°C 66% Calm Calm -- 30.05 in1017.6 mb 0.02 in0.5 mm 0.01 in0.3 mm 0.06 in1.5 mm
02:05 AM 56.8°F13.8°C 45.5°F7.5°C 66% Calm Calm -- 30.05 in1017.6 mb 0.02 in0.5 mm 0.00 in0.0 mm 0.06 in1.5 mm
02:10 AM 56.8°F13.8°C 45.5°F7.5°C 66% Calm Calm -- 30.05 in1017.6 mb 0.02 in0.5 mm 0.00 in0.0 mm 0.06 in1.5 mm
02:15 AM 56.9°F13.8°C 45.6°F7.6°C 66% Calm Calm -- 30.05 in1017.6 mb 0.02 in0.5 mm 0.00 in0.0 mm 0.07 in1.8 mm
02:20 AM 56.8°F13.8°C 45.5°F7.5°C 66% Calm Calm -- 30.05 in1017.6 mb 0.02 in0.5 mm 0.00 in0.0 mm 0.07 in1.8 mm
02:25 AM 56.8°F13.8°C 45.5°F7.5°C 66% Calm Calm -- 30.05 in1017.6 mb 0.02 in0.5 mm 0.00 in0.0 mm 0.07 in1.8 mm
02:30 AM 56.8°F13.8°C 45.5°F7.5°C 66% Calm Calm -- 30.05 in1017.6 mb 0.02 in0.5 mm 0.00 in0.0 mm 0.07 in1.8 mm
02:35 AM 56.7°F13.7°C 45.4°F7.4°C 66% Calm Calm -- 30.05 in1017.6 mb 0.02 in0.5 mm 0.00 in0.0 mm 0.07 in1.8 mm
02:40 AM 56.7°F13.7°C 45.4°F7.4°C 66% Calm Calm -- 30.05 in1017.6 mb 0.03 in0.8 mm 0.12 in3.0 mm 0.08 in2.0 mm
02:45 AM 56.7°F13.7°C 45.4°F7.4°C 66% Calm Calm -- 30.05 in1017.6 mb 0.02 in0.5 mm 0.00 in0.0 mm 0.08 in2.0 mm
02:50 AM 56.7°F13.7°C 45.4°F7.4°C 66% Calm Calm -- 30.05 in1017.6 mb 0.02 in0.5 mm 0.00 in0.0 mm 0.08 in2.0 mm
02:55 AM 56.7°F13.7°C 45.4°F7.4°C 66% Calm Calm -- 30.05 in1017.6 mb 0.02 in0.5 mm 0.00 in0.0 mm 0.08 in2.0 mm
03:00 AM 56.8°F13.8°C 45.5°F7.5°C 66% Calm Calm -- 30.04 in1017.3 mb 0.02 in0.5 mm 0.00 in0.0 mm 0.08 in2.0 mm
03:05 AM 56.8°F13.8°C 45.5°F7.5°C 66% Calm Calm -- 30.05 in1017.6 mb 0.02 in0.5 mm 0.00 in0.0 mm 0.08 in2.0 mm
03:10 AM 56.8°F13.8°C 45.5°F7.5°C 66% Calm Calm -- 30.05 in1017.6 mb 0.02 in0.5 mm 0.00 in0.0 mm 0.08 in2.0 mm
03:15 AM 56.8°F13.8°C 45.5°F7.5°C 66% Calm Calm -- 30.05 in1017.6 mb 0.01 in0.3 mm 0.00 in0.0 mm 0.08 in2.0 mm
03:20 AM 56.7°F13.7°C 45.4°F7.4°C 66% Calm Calm 4.0 mph6.4 kmh 30.05 in1017.6 mb 0.01 in0.3 mm 0.00 in0.0 mm 0.08 in2.0 mm
03:25 AM 56.7°F13.7°C 45.4°F7.4°C 66% Calm Calm -- 30.05 in1017.6 mb 0.01 in0.3 mm 0.00 in0.0 mm 0.08 in2.0 mm
03:30 AM 56.7°F13.7°C 45.4°F7.4°C 66% Calm Calm -- 30.05 in1017.6 mb 0.01 in0.3 mm 0.00 in0.0 mm 0.08 in2.0 mm
03:35 AM 56.7°F13.7°C 45.4°F7.4°C 66% Calm Calm -- 30.05 in1017.6 mb 0.01 in0.3 mm 0.00 in0.0 mm 0.08 in2.0 mm
03:40 AM 56.6°F13.7°C 45.3°F7.4°C 66% Calm Calm 5.0 mph8.0 kmh 30.05 in1017.6 mb 0.00 in0.0 mm 0.00 in0.0 mm 0.08 in2.0 mm
03:45 AM 56.6°F13.7°C 45.3°F7.4°C 66% Calm Calm -- 30.05 in1017.6 mb 0.00 in0.0 mm 0.00 in0.0 mm 0.08 in2.0 mm
03:50 AM 56.5°F13.6°C 45.2°F7.3°C 66% Calm Calm -- 30.04 in1017.3 mb 0.00 in0.0 mm 0.00 in0.0 mm 0.08 in2.0 mm
03:55 AM 56.4°F13.6°C 45.1°F7.3°C 66% Calm Calm -- 30.03 in1016.9 mb 0.00 in0.0 mm 0.00 in0.0 mm 0.08 in2.0 mm
04:00 AM 56.4°F13.6°C 45.1°F7.3°C 66% Calm Calm -- 30.03 in1016.9 mb 0.00 in0.0 mm 0.00 in0.0 mm 0.08 in2.0 mm
04:05 AM 56.4°F13.6°C 45.1°F7.3°C 66% Calm Calm -- 30.04 in1017.3 mb 0.00 in0.0 mm 0.00 in0.0 mm 0.08 in2.0 mm
04:10 AM 56.4°F13.6°C 45.1°F7.3°C 66% Calm Calm -- 30.04 in1017.3 mb 0.00 in0.0 mm 0.00 in0.0 mm 0.08 in2.0 mm
04:15 AM 56.3°F13.5°C 45.0°F7.2°C 66% Calm Calm -- 30.04 in1017.3 mb 0.00 in0.0 mm 0.00 in0.0 mm 0.08 in2.0 mm
04:20 AM 56.3°F13.5°C 45.0°F7.2°C 66% Calm Calm 1.0 mph1.6 kmh 30.04 in1017.3 mb 0.00 in0.0 mm 0.00 in0.0 mm 0.08 in2.0 mm
04:25 AM 56.3°F13.5°C 45.0°F7.2°C 66% Calm Calm 13.0 mph20.9 kmh 30.04 in1017.3 mb 0.00 in0.0 mm 0.00 in0.0 mm 0.08 in2.0 mm
04:30 AM 56.2°F13.4°C 44.9°F7.2°C 66% Calm Calm -- 30.04 in1017.3 mb 0.00 in0.0 mm 0.00 in0.0 mm 0.08 in2.0 mm
04:35 AM 56.2°F13.4°C 44.9°F7.2°C 66% Calm Calm -- 30.04 in1017.3 mb 0.00 in0.0 mm 0.00 in0.0 mm 0.08 in2.0 mm
04:40 AM 56.3°F13.5°C 45.0°F7.2°C 66% Calm Calm -- 30.04 in1017.3 mb 0.00 in0.0 mm 0.00 in0.0 mm 0.08 in2.0 mm
04:45 AM 56.3°F13.5°C 45.0°F7.2°C 66% Calm Calm -- 30.04 in1017.3 mb 0.00 in0.0 mm 0.00 in0.0 mm 0.08 in2.0 mm
04:50 AM 56.3°F13.5°C 45.0°F7.2°C 66% Calm Calm -- 30.04 in1017.3 mb 0.00 in0.0 mm 0.00 in0.0 mm 0.08 in2.0 mm
04:55 AM 56.3°F13.5°C 45.0°F7.2°C 66% Calm Calm -- 30.04 in1017.3 mb 0.01 in0.3 mm 0.12 in3.0 mm 0.09 in2.3 mm
05:00 AM 56.2°F13.4°C 44.9°F7.2°C 66% Calm Calm -- 30.04 in1017.3 mb 0.01 in0.3 mm 0.00 in0.0 mm 0.09 in2.3 mm
05:05 AM 56.2°F13.4°C 44.9°F7.2°C 66% Calm Calm -- 30.04 in1017.3 mb 0.02 in0.5 mm 0.12 in3.0 mm 0.09 in2.3 mm
05:10 AM 56.3°F13.5°C 45.0°F7.2°C 66% Calm Calm -- 30.04 in1017.3 mb 0.02 in0.5 mm 0.00 in0.0 mm 0.10 in2.5 mm
05:15 AM 56.2°F13.4°C 44.9°F7.2°C 66% Calm Calm 9.0 mph14.5 kmh 30.03 in1016.9 mb 0.02 in0.5 mm 0.00 in0.0 mm 0.10 in2.5 mm
05:20 AM 56.1°F13.4°C 44.8°F7.1°C 66% Calm Calm -- 30.03 in1016.9 mb 0.03 in0.8 mm 0.12 in3.0 mm 0.11 in2.8 mm
05:25 AM 56.0°F13.3°C 44.8°F7.1°C 66% 3.0 mph NNE4.8 kmh NNE 3.0 mph4.8 kmh 30.03 in1016.9 mb 0.04 in1.0 mm 0.12 in3.0 mm 0.12 in3.0 mm
05:30 AM 55.9°F13.3°C 44.7°F7.1°C 66% 2.0 mph NNE3.2 kmh NNE 11.0 mph17.7 kmh 30.02 in1016.6 mb 0.04 in1.0 mm 0.00 in0.0 mm 0.12 in3.0 mm
05:35 AM 55.9°F13.3°C 44.7°F7.1°C 66% Calm Calm 5.0 mph8.0 kmh 30.02 in1016.6 mb 0.05 in1.3 mm 0.12 in3.0 mm 0.13 in3.3 mm
05:40 AM 55.9°F13.3°C 44.7°F7.1°C 66% Calm Calm -- 30.03 in1016.9 mb 0.05 in1.3 mm 0.00 in0.0 mm 0.13 in3.3 mm
05:45 AM 55.8°F13.2°C 44.6°F7.0°C 66% Calm Calm 6.0 mph9.7 kmh 30.03 in1016.9 mb 0.05 in1.3 mm 0.00 in0.0 mm 0.13 in3.3 mm
05:50 AM 55.8°F13.2°C 44.6°F7.0°C 66% 4.0 mph NNE6.4 kmh NNE 7.0 mph11.3 kmh 30.02 in1016.6 mb 0.05 in1.3 mm 0.00 in0.0 mm 0.13 in3.3 mm
05:55 AM 55.8°F13.2°C 44.6°F7.0°C 66% Calm Calm 7.0 mph11.3 kmh 30.02 in1016.6 mb 0.04 in1.0 mm 0.00 in0.0 mm 0.13 in3.3 mm
06:00 AM 55.7°F13.2°C 44.5°F6.9°C 66% Calm Calm -- 30.02 in1016.6 mb 0.04 in1.0 mm 0.00 in0.0 mm 0.13 in3.3 mm
06:05 AM 55.7°F13.2°C 44.5°F6.9°C 66% 6.0 mph N9.7 kmh N 7.0 mph11.3 kmh 30.02 in1016.6 mb 0.03 in0.8 mm 0.00 in0.0 mm 0.13 in3.3 mm
06:10 AM 55.7°F13.2°C 44.5°F6.9°C 66% Calm Calm 6.0 mph9.7 kmh 30.02 in1016.6 mb 0.02 in0.5 mm 0.00 in0.0 mm 0.13 in3.3 mm
06:15 AM 55.7°F13.2°C 44.5°F6.9°C 66% Calm Calm -- 30.03 in1016.9 mb 0.02 in0.5 mm 0.00 in0.0 mm 0.13 in3.3 mm
06:20 AM 55.7°F13.2°C 44.5°F6.9°C 66% Calm Calm -- 30.03 in1016.9 mb 0.02 in0.5 mm 0.00 in0.0 mm 0.13 in3.3 mm
06:25 AM 55.7°F13.2°C 44.5°F6.9°C 66% Calm Calm -- 30.03 in1016.9 mb 0.01 in0.3 mm 0.00 in0.0 mm 0.13 in3.3 mm
06:30 AM 55.8°F13.2°C 44.6°F7.0°C 66% Calm Calm -- 30.03 in1016.9 mb 0.01 in0.3 mm 0.00 in0.0 mm 0.13 in3.3 mm
06:35 AM 55.9°F13.3°C 44.7°F7.1°C 66% Calm Calm -- 30.03 in1016.9 mb 0.00 in0.0 mm 0.00 in0.0 mm 0.13 in3.3 mm
06:40 AM 56.0°F13.3°C 44.4°F6.9°C 65% Calm Calm -- 30.03 in1016.9 mb 0.01 in0.3 mm 0.12 in3.0 mm 0.13 in3.3 mm
06:45 AM 56.0°F13.3°C 44.4°F6.9°C 65% Calm Calm -- 30.03 in1016.9 mb 0.02 in0.5 mm 0.12 in3.0 mm 0.14 in3.6 mm
06:50 AM 56.0°F13.3°C 44.4°F6.9°C 65% 4.0 mph NNE6.4 kmh NNE 7.0 mph11.3 kmh 30.03 in1016.9 mb 0.02 in0.5 mm 0.00 in0.0 mm 0.14 in3.6 mm
06:55 AM 55.9°F13.3°C 44.3°F6.8°C 65% Calm Calm 11.0 mph17.7 kmh 30.03 in1016.9 mb 0.02 in0.5 mm 0.00 in0.0 mm 0.15 in3.8 mm
07:00 AM 55.9°F13.3°C 44.3°F6.8°C 65% Calm Calm -- 30.04 in1017.3 mb 0.02 in0.5 mm 0.00 in0.0 mm 0.15 in3.8 mm
07:05 AM 55.9°F13.3°C 44.3°F6.8°C 65% Calm Calm -- 30.04 in1017.3 mb 0.03 in0.8 mm 0.12 in3.0 mm 0.16 in4.1 mm
07:10 AM 56.0°F13.3°C 44.4°F6.9°C 65% Calm Calm -- 30.04 in1017.3 mb 0.03 in0.8 mm 0.00 in0.0 mm 0.16 in4.1 mm
07:15 AM 55.9°F13.3°C 44.3°F6.8°C 65% Calm Calm -- 30.04 in1017.3 mb 0.03 in0.8 mm 0.00 in0.0 mm 0.16 in4.1 mm
07:20 AM 55.9°F13.3°C 44.3°F6.8°C 65% Calm Calm -- 30.04 in1017.3 mb 0.03 in0.8 mm 0.00 in0.0 mm 0.16 in4.1 mm
07:25 AM 56.0°F13.3°C 44.4°F6.9°C 65% Calm Calm -- 30.04 in1017.3 mb 0.04 in1.0 mm 0.12 in3.0 mm 0.17 in4.3 mm
07:30 AM 56.0°F13.3°C 44.4°F6.9°C 65% Calm Calm -- 30.04 in1017.3 mb 0.04 in1.0 mm 0.00 in0.0 mm 0.17 in4.3 mm
07:35 AM 56.0°F13.3°C 44.4°F6.9°C 65% Calm Calm -- 30.04 in1017.3 mb 0.04 in1.0 mm 0.00 in0.0 mm 0.17 in4.3 mm
07:40 AM 55.9°F13.3°C 44.3°F6.8°C 65% Calm Calm -- 30.04 in1017.3 mb 0.04 in1.0 mm 0.00 in0.0 mm 0.17 in4.3 mm
07:45 AM 55.9°F13.3°C 44.3°F6.8°C 65% Calm Calm -- 30.04 in1017.3 mb 0.03 in0.8 mm 0.00 in0.0 mm 0.17 in4.3 mm
07:50 AM 56.0°F13.3°C 44.4°F6.9°C 65% Calm Calm -- 30.04 in1017.3 mb 0.03 in0.8 mm 0.00 in0.0 mm 0.17 in4.3 mm
07:55 AM 56.1°F13.4°C 44.4°F6.9°C 65% Calm Calm -- 30.04 in1017.3 mb 0.02 in0.5 mm 0.00 in0.0 mm 0.17 in4.3 mm
08:00 AM 56.2°F13.4°C 44.5°F6.9°C 65% Calm Calm -- 30.03 in1016.9 mb 0.03 in0.8 mm 0.01 in0.3 mm 0.18 in4.6 mm
08:05 AM 56.2°F13.4°C 44.5°F6.9°C 65% Calm Calm 7.0 mph11.3 kmh 30.03 in1016.9 mb 0.02 in0.5 mm 0.00 in0.0 mm 0.18 in4.6 mm
08:10 AM 56.0°F13.3°C 44.4°F6.9°C 65% Calm Calm 15.0 mph24.1 kmh 30.04 in1017.3 mb 0.02 in0.5 mm 0.00 in0.0 mm 0.18 in4.6 mm
08:15 AM 55.8°F13.2°C 44.2°F6.8°C 65% Calm Calm 9.0 mph14.5 kmh 30.04 in1017.3 mb 0.02 in0.5 mm 0.00 in0.0 mm 0.18 in4.6 mm
08:20 AM 55.9°F13.3°C 44.3°F6.8°C 65% Calm Calm -- 30.04 in1017.3 mb 0.02 in0.5 mm 0.00 in0.0 mm 0.18 in4.6 mm
08:25 AM 56.0°F13.3°C 44.4°F6.9°C 65% Calm Calm -- 30.04 in1017.3 mb 0.02 in0.5 mm 0.00 in0.0 mm 0.18 in4.6 mm
08:30 AM 56.0°F13.3°C 44.4°F6.9°C 65% Calm Calm -- 30.04 in1017.3 mb 0.02 in0.5 mm 0.00 in0.0 mm 0.18 in4.6 mm
08:35 AM 55.9°F13.3°C 44.3°F6.8°C 65% Calm Calm -- 30.04 in1017.3 mb 0.02 in0.5 mm 0.00 in0.0 mm 0.18 in4.6 mm
08:40 AM 56.0°F13.3°C 44.4°F6.9°C 65% Calm Calm -- 30.04 in1017.3 mb 0.01 in0.3 mm 0.00 in0.0 mm 0.18 in4.6 mm
08:45 AM 56.0°F13.3°C 44.4°F6.9°C 65% Calm Calm -- 30.04 in1017.3 mb 0.01 in0.3 mm 0.00 in0.0 mm 0.18 in4.6 mm
08:50 AM 56.0°F13.3°C 44.4°F6.9°C 65% Calm Calm -- 30.04 in1017.3 mb 0.01 in0.3 mm 0.00 in0.0 mm 0.18 in4.6 mm
08:55 AM 56.1°F13.4°C 44.4°F6.9°C 65% Calm Calm -- 30.05 in1017.6 mb 0.02 in0.5 mm 0.12 in3.0 mm 0.19 in4.8 mm
09:00 AM 56.1°F13.4°C 44.4°F6.9°C 65% Calm Calm -- 30.05 in1017.6 mb 0.01 in0.3 mm 0.00 in0.0 mm 0.19 in4.8 mm
09:05 AM 56.2°F13.4°C 44.5°F6.9°C 65% 3.0 mph NW4.8 kmh NW 6.0 mph9.7 kmh 30.05 in1017.6 mb 0.02 in0.5 mm 0.12 in3.0 mm 0.20 in5.1 mm
09:10 AM 56.1°F13.4°C 44.4°F6.9°C 65% Calm Calm 13.0 mph20.9 kmh 30.05 in1017.6 mb 0.02 in0.5 mm 0.00 in0.0 mm 0.20 in5.1 mm
09:15 AM 56.0°F13.3°C 44.4°F6.9°C 65% 4.0 mph NW6.4 kmh NW 9.0 mph14.5 kmh 30.05 in1017.6 mb 0.02 in0.5 mm 0.00 in0.0 mm 0.20 in5.1 mm
09:20 AM 56.0°F13.3°C 44.4°F6.9°C 65% 2.0 mph NW3.2 kmh NW 7.0 mph11.3 kmh 30.06 in1017.9 mb 0.02 in0.5 mm 0.00 in0.0 mm 0.20 in5.1 mm
09:25 AM 55.9°F13.3°C 44.3°F6.8°C 65% Calm Calm 5.0 mph8.0 kmh 30.05 in1017.6 mb 0.02 in0.5 mm 0.00 in0.0 mm 0.20 in5.1 mm
09:30 AM 55.9°F13.3°C 44.3°F6.8°C 65% Calm Calm 4.0 mph6.4 kmh 30.06 in1017.9 mb 0.03 in0.8 mm 0.12 in3.0 mm 0.21 in5.3 mm
09:35 AM 56.0°F13.3°C 44.4°F6.9°C 65% Calm Calm -- 30.05 in1017.6 mb 0.03 in0.8 mm 0.00 in0.0 mm 0.21 in5.3 mm
09:40 AM 56.0°F13.3°C 44.4°F6.9°C 65% Calm Calm 9.0 mph14.5 kmh 30.05 in1017.6 mb 0.03 in0.8 mm 0.00 in0.0 mm 0.21 in5.3 mm
09:45 AM 55.9°F13.3°C 44.3°F6.8°C 65% Calm Calm -- 30.06 in1017.9 mb 0.03 in0.8 mm 0.00 in0.0 mm 0.21 in5.3 mm
09:50 AM 55.9°F13.3°C 44.3°F6.8°C 65% Calm Calm -- 30.05 in1017.6 mb 0.04 in1.0 mm 0.12 in3.0 mm 0.22 in5.6 mm
09:55 AM 55.7°F13.2°C 44.1°F6.7°C 65% Calm Calm -- 30.05 in1017.6 mb 0.03 in0.8 mm 0.00 in0.0 mm 0.22 in5.6 mm
10:00 AM 55.7°F13.2°C 44.1°F6.7°C 65% Calm Calm 9.0 mph14.5 kmh 30.05 in1017.6 mb 0.04 in1.0 mm 0.01 in0.3 mm 0.23 in5.8 mm
10:05 AM 55.9°F13.3°C 44.3°F6.8°C 65% Calm Calm -- 30.05 in1017.6 mb 0.03 in0.8 mm 0.00 in0.0 mm 0.23 in5.8 mm
10:10 AM 55.8°F13.2°C 44.2°F6.8°C 65% 9.0 mph NW14.5 kmh NW 9.0 mph14.5 kmh 30.05 in1017.6 mb 0.03 in0.8 mm 0.00 in0.0 mm 0.23 in5.8 mm
10:15 AM 55.8°F13.2°C 44.2°F6.8°C 65% Calm Calm 6.0 mph9.7 kmh 30.05 in1017.6 mb 0.04 in1.0 mm 0.12 in3.0 mm 0.24 in6.1 mm
10:20 AM 55.8°F13.2°C 44.2°F6.8°C 65% 3.0 mph WNW4.8 kmh WNW 7.0 mph11.3 kmh 30.05 in1017.6 mb 0.04 in1.0 mm 0.00 in0.0 mm 0.24 in6.1 mm
10:25 AM 55.7°F13.2°C 44.1°F6.7°C 65% 4.0 mph WNW6.4 kmh WNW 6.0 mph9.7 kmh 30.05 in1017.6 mb 0.04 in1.0 mm 0.00 in0.0 mm 0.24 in6.1 mm
10:30 AM 55.7°F13.2°C 44.1°F6.7°C 65% Calm Calm -- 30.05 in1017.6 mb 0.04 in1.0 mm 0.00 in0.0 mm 0.25 in6.4 mm
10:35 AM 55.8°F13.2°C 44.2°F6.8°C 65% Calm Calm -- 30.05 in1017.6 mb 0.04 in1.0 mm 0.00 in0.0 mm 0.25 in6.4 mm
10:40 AM 55.8°F13.2°C 44.2°F6.8°C 65% Calm Calm -- 30.05 in1017.6 mb 0.05 in1.3 mm 0.12 in3.0 mm 0.26 in6.6 mm
10:45 AM 55.8°F13.2°C 44.2°F6.8°C 65% Calm Calm -- 30.05 in1017.6 mb 0.05 in1.3 mm 0.00 in0.0 mm 0.26 in6.6 mm
10:50 AM 55.7°F13.2°C 44.1°F6.7°C 65% Calm Calm -- 30.05 in1017.6 mb 0.05 in1.3 mm 0.00 in0.0 mm 0.27 in6.9 mm
10:55 AM 55.6°F13.1°C 44.0°F6.7°C 65% Calm Calm -- 30.05 in1017.6 mb 0.06 in1.5 mm 0.12 in3.0 mm 0.28 in7.1 mm
11:00 AM 55.6°F13.1°C 44.0°F6.7°C 65% Calm Calm -- 30.05 in1017.6 mb 0.05 in1.3 mm 0.00 in0.0 mm 0.28 in7.1 mm
11:05 AM 55.7°F13.2°C 44.1°F6.7°C 65% Calm Calm -- 30.06 in1017.9 mb 0.06 in1.5 mm 0.12 in3.0 mm 0.28 in7.1 mm
11:10 AM 55.7°F13.2°C 44.1°F6.7°C 65% Calm Calm -- 30.06 in1017.9 mb 0.06 in1.5 mm 0.00 in0.0 mm 0.28 in7.1 mm
11:15 AM 55.7°F13.2°C 44.1°F6.7°C 65% Calm Calm -- 30.06 in1017.9 mb 0.06 in1.5 mm 0.00 in0.0 mm 0.29 in7.4 mm
11:20 AM 55.7°F13.2°C 44.1°F6.7°C 65% Calm Calm -- 30.06 in1017.9 mb 0.05 in1.3 mm 0.00 in0.0 mm 0.29 in7.4 mm
11:25 AM 55.6°F13.1°C 44.0°F6.7°C 65% Calm Calm -- 30.05 in1017.6 mb 0.06 in1.5 mm 0.12 in3.0 mm 0.30 in7.6 mm
11:30 AM 55.5°F13.1°C 43.9°F6.6°C 65% Calm Calm -- 30.05 in1017.6 mb 0.06 in1.5 mm 0.00 in0.0 mm 0.31 in7.9 mm
11:35 AM 55.5°F13.1°C 43.9°F6.6°C 65% Calm Calm -- 30.05 in1017.6 mb 0.06 in1.5 mm 0.00 in0.0 mm 0.31 in7.9 mm
11:40 AM 55.6°F13.1°C 44.0°F6.7°C 65% Calm Calm -- 30.05 in1017.6 mb 0.05 in1.3 mm 0.00 in0.0 mm 0.31 in7.9 mm
11:45 AM 55.7°F13.2°C 44.1°F6.7°C 65% Calm Calm -- 30.05 in1017.6 mb 0.06 in1.5 mm 0.12 in3.0 mm 0.31 in7.9 mm
11:50 AM 55.7°F13.2°C 44.1°F6.7°C 65% Calm Calm -- 30.05 in1017.6 mb 0.06 in1.5 mm 0.00 in0.0 mm 0.32 in8.1 mm
11:55 AM 55.7°F13.2°C 44.1°F6.7°C 65% Calm Calm -- 30.05 in1017.6 mb 0.06 in1.5 mm 0.00 in0.0 mm 0.33 in8.4 mm
12:00 PM 55.7°F13.2°C 44.1°F6.7°C 65% Calm Calm -- 30.04 in1017.3 mb 0.06 in1.5 mm 0.00 in0.0 mm 0.34 in8.6 mm
12:05 PM 55.7°F13.2°C 44.1°F6.7°C 65% Calm Calm -- 30.04 in1017.3 mb 0.06 in1.5 mm 0.00 in0.0 mm 0.35 in8.9 mm
12:10 PM 55.7°F13.2°C 44.1°F6.7°C 65% Calm Calm -- 30.04 in1017.3 mb 0.07 in1.8 mm 0.12 in3.0 mm 0.35 in8.9 mm
12:15 PM 55.8°F13.2°C 44.2°F6.8°C 65% Calm Calm -- 30.03 in1016.9 mb 0.06 in1.5 mm 0.00 in0.0 mm 0.35 in8.9 mm
12:20 PM 55.9°F13.3°C 44.3°F6.8°C 65% Calm Calm -- 30.04 in1017.3 mb 0.06 in1.5 mm 0.00 in0.0 mm 0.35 in8.9 mm
12:25 PM 56.1°F13.4°C 44.0°F6.7°C 64% Calm Calm -- 30.03 in1016.9 mb 0.06 in1.5 mm 0.00 in0.0 mm 0.36 in9.1 mm
12:30 PM 56.2°F13.4°C 44.5°F6.9°C 65% Calm Calm -- 30.03 in1016.9 mb 0.06 in1.5 mm 0.00 in0.0 mm 0.36 in9.1 mm
12:35 PM 56.2°F13.4°C 44.5°F6.9°C 65% Calm Calm -- 30.03 in1016.9 mb 0.06 in1.5 mm 0.00 in0.0 mm 0.37 in9.4 mm
12:40 PM 56.3°F13.5°C 44.6°F7.0°C 65% Calm Calm -- 30.03 in1016.9 mb 0.06 in1.5 mm 0.00 in0.0 mm 0.37 in9.4 mm
12:45 PM 56.4°F13.6°C 44.3°F6.8°C 64% Calm Calm -- 30.03 in1016.9 mb 0.06 in1.5 mm 0.00 in0.0 mm 0.38 in9.7 mm
12:50 PM 56.3°F13.5°C 44.2°F6.8°C 64% Calm Calm -- 30.03 in1016.9 mb 0.06 in1.5 mm 0.00 in0.0 mm 0.38 in9.7 mm
12:55 PM 56.3°F13.5°C 44.6°F7.0°C 65% Calm Calm -- 30.03 in1016.9 mb 0.05 in1.3 mm 0.00 in0.0 mm 0.38 in9.7 mm
01:00 PM 56.2°F13.4°C 44.5°F6.9°C 65% Calm Calm -- 30.03 in1016.9 mb 0.04 in1.0 mm 0.00 in0.0 mm 0.38 in9.7 mm
01:05 PM 56.0°F13.3°C 44.4°F6.9°C 65% Calm Calm -- 30.03 in1016.9 mb 0.03 in0.8 mm 0.00 in0.0 mm 0.38 in9.7 mm
01:10 PM 56.1°F13.4°C 44.4°F6.9°C 65% Calm Calm -- 30.02 in1016.6 mb 0.03 in0.8 mm 0.00 in0.0 mm 0.39 in9.9 mm
01:15 PM 56.4°F13.6°C 44.3°F6.8°C 64% Calm Calm -- 30.02 in1016.6 mb 0.03 in0.8 mm 0.00 in0.0 mm 0.39 in9.9 mm
01:20 PM 56.4°F13.6°C 44.3°F6.8°C 64% Calm Calm -- 30.02 in1016.6 mb 0.03 in0.8 mm 0.00 in0.0 mm 0.39 in9.9 mm
01:25 PM 56.4°F13.6°C 44.3°F6.8°C 64% Calm Calm -- 30.02 in1016.6 mb 0.02 in0.5 mm 0.00 in0.0 mm 0.39 in9.9 mm
01:30 PM 56.4°F13.6°C 44.3°F6.8°C 64% Calm Calm 9.0 mph14.5 kmh 30.03 in1016.9 mb 0.02 in0.5 mm 0.00 in0.0 mm 0.39 in9.9 mm
01:35 PM 56.3°F13.5°C 44.2°F6.8°C 64% Calm Calm -- 30.03 in1016.9 mb 0.02 in0.5 mm 0.00 in0.0 mm 0.39 in9.9 mm
01:40 PM 56.3°F13.5°C 44.2°F6.8°C 64% Calm Calm -- 30.03 in1016.9 mb 0.02 in0.5 mm 0.00 in0.0 mm 0.39 in9.9 mm
01:45 PM 56.3°F13.5°C 44.2°F6.8°C 64% 2.0 mph WNW3.2 kmh WNW 11.0 mph17.7 kmh 30.03 in1016.9 mb 0.01 in0.3 mm 0.00 in0.0 mm 0.39 in9.9 mm
01:50 PM 56.3°F13.5°C 44.2°F6.8°C 64% 5.0 mph NW8.0 kmh NW 7.0 mph11.3 kmh 30.03 in1016.9 mb 0.01 in0.3 mm 0.00 in0.0 mm 0.39 in9.9 mm
01:55 PM 56.3°F13.5°C 44.2°F6.8°C 64% 2.0 mph NW3.2 kmh NW 9.0 mph14.5 kmh 30.03 in1016.9 mb 0.01 in0.3 mm 0.00 in0.0 mm 0.39 in9.9 mm
02:00 PM 56.0°F13.3°C 44.4°F6.9°C 65% Calm Calm 13.0 mph20.9 kmh 30.03 in1016.9 mb 0.01 in0.3 mm 0.00 in0.0 mm 0.39 in9.9 mm
02:05 PM 56.1°F13.4°C 44.4°F6.9°C 65% Calm Calm -- 30.04 in1017.3 mb 0.01 in0.3 mm 0.00 in0.0 mm 0.39 in9.9 mm
02:10 PM 56.0°F13.3°C 43.9°F6.6°C 64% Calm Calm -- 30.04 in1017.3 mb 0.00 in0.0 mm 0.00 in0.0 mm 0.39 in9.9 mm
02:15 PM 55.9°F13.3°C 44.3°F6.8°C 65% Calm Calm -- 30.04 in1017.3 mb 0.00 in0.0 mm 0.00 in0.0 mm 0.39 in9.9 mm
02:20 PM 56.0°F13.3°C 44.4°F6.9°C 65% Calm Calm -- 30.03 in1016.9 mb 0.00 in0.0 mm 0.00 in0.0 mm 0.39 in9.9 mm
02:25 PM 55.8°F13.2°C 44.2°F6.8°C 65% Calm Calm -- 30.03 in1016.9 mb 0.00 in0.0 mm 0.00 in0.0 mm 0.39 in9.9 mm
02:30 PM 55.8°F13.2°C 44.2°F6.8°C 65% Calm Calm -- 30.03 in1016.9 mb 0.00 in0.0 mm 0.00 in0.0 mm 0.39 in9.9 mm
02:35 PM 56.0°F13.3°C 44.4°F6.9°C 65% Calm Calm -- 30.03 in1016.9 mb 0.00 in0.0 mm 0.00 in0.0 mm 0.39 in9.9 mm
02:40 PM 56.4°F13.6°C 44.7°F7.1°C 65% Calm Calm -- 30.01 in1016.3 mb 0.00 in0.0 mm 0.00 in0.0 mm 0.39 in9.9 mm
02:45 PM 56.7°F13.7°C 44.6°F7.0°C 64% Calm Calm -- 30.01 in1016.3 mb 0.00 in0.0 mm 0.00 in0.0 mm 0.39 in9.9 mm
02:50 PM 56.9°F13.8°C 44.8°F7.1°C 64% Calm Calm -- 30.01 in1016.3 mb 0.00 in0.0 mm 0.00 in0.0 mm 0.39 in9.9 mm
02:55 PM 56.8°F13.8°C 45.1°F7.3°C 65% Calm Calm -- 30.01 in1016.3 mb 0.00 in0.0 mm 0.00 in0.0 mm 0.39 in9.9 mm
03:00 PM 56.7°F13.7°C 45.0°F7.2°C 65% Calm Calm -- 30.01 in1016.3 mb 0.00 in0.0 mm 0.00 in0.0 mm 0.39 in9.9 mm
03:05 PM 56.7°F13.7°C 45.0°F7.2°C 65% Calm Calm -- 30.01 in1016.3 mb 0.00 in0.0 mm 0.00 in0.0 mm 0.39 in9.9 mm
03:10 PM 56.6°F13.7°C 44.9°F7.2°C 65% Calm Calm -- 30.02 in1016.6 mb 0.00 in0.0 mm 0.00 in0.0 mm 0.39 in9.9 mm
03:15 PM 56.4°F13.6°C 45.1°F7.3°C 66% Calm Calm -- 30.01 in1016.3 mb 0.00 in0.0 mm 0.00 in0.0 mm 0.39 in9.9 mm
03:20 PM 56.5°F13.6°C 45.2°F7.3°C 66% Calm Calm -- 30.02 in1016.6 mb 0.00 in0.0 mm 0.00 in0.0 mm 0.39 in9.9 mm
03:25 PM 56.5°F13.6°C 45.2°F7.3°C 66% Calm Calm -- 30.02 in1016.6 mb 0.00 in0.0 mm 0.00 in0.0 mm 0.39 in9.9 mm
03:30 PM 56.6°F13.7°C 45.3°F7.4°C 66% Calm Calm -- 30.02 in1016.6 mb 0.00 in0.0 mm 0.00 in0.0 mm 0.39 in9.9 mm
03:35 PM 56.7°F13.7°C 45.4°F7.4°C 66% Calm Calm -- 30.02 in1016.6 mb 0.00 in0.0 mm 0.00 in0.0 mm 0.39 in9.9 mm
03:40 PM 56.8°F13.8°C 45.9°F7.7°C 67% Calm Calm 4.0 mph6.4 kmh 30.02 in1016.6 mb 0.00 in0.0 mm 0.00 in0.0 mm 0.39 in9.9 mm
03:45 PM 56.7°F13.7°C 45.8°F7.7°C 67% Calm Calm -- 30.02 in1016.6 mb 0.00 in0.0 mm 0.00 in0.0 mm 0.39 in9.9 mm
03:50 PM 56.6°F13.7°C 45.7°F7.6°C 67% Calm Calm -- 30.02 in1016.6 mb 0.00 in0.0 mm 0.00 in0.0 mm 0.39 in9.9 mm
03:55 PM 56.5°F13.6°C 45.6°F7.6°C 67% Calm Calm -- 30.02 in1016.6 mb 0.00 in0.0 mm 0.00 in0.0 mm 0.39 in9.9 mm
04:00 PM 56.3°F13.5°C 45.4°F7.4°C 67% Calm Calm -- 30.02 in1016.6 mb 0.00 in0.0 mm 0.00 in0.0 mm 0.39 in9.9 mm
04:05 PM 56.2°F13.4°C 45.3°F7.4°C 67% 1.0 mph NE1.6 kmh NE 5.0 mph8.0 kmh 30.02 in1016.6 mb 0.00 in0.0 mm 0.00 in0.0 mm 0.39 in9.9 mm
04:10 PM 56.2°F13.4°C 45.3°F7.4°C 67% Calm Calm -- 30.02 in1016.6 mb 0.00 in0.0 mm 0.00 in0.0 mm 0.39 in9.9 mm
04:15 PM 56.1°F13.4°C 45.2°F7.3°C 67% Calm Calm -- 30.02 in1016.6 mb 0.00 in0.0 mm 0.00 in0.0 mm 0.39 in9.9 mm
04:20 PM 56.0°F13.3°C 45.5°F7.5°C 68% Calm Calm -- 30.02 in1016.6 mb 0.00 in0.0 mm 0.00 in0.0 mm 0.39 in9.9 mm
04:25 PM 56.0°F13.3°C 45.1°F7.3°C 67% Calm Calm -- 30.02 in1016.6 mb 0.00 in0.0 mm 0.00 in0.0 mm 0.39 in9.9 mm
04:30 PM 55.9°F13.3°C 45.1°F7.3°C 67% Calm Calm -- 30.03 in1016.9 mb 0.00 in0.0 mm 0.00 in0.0 mm 0.39 in9.9 mm
04:35 PM 55.9°F13.3°C 45.1°F7.3°C 67% Calm Calm -- 30.03 in1016.9 mb 0.00 in0.0 mm 0.00 in0.0 mm 0.39 in9.9 mm
04:40 PM 55.9°F13.3°C 45.1°F7.3°C 67% Calm Calm -- 30.03 in1016.9 mb 0.00 in0.0 mm 0.00 in0.0 mm 0.39 in9.9 mm
04:45 PM 55.9°F13.3°C 45.1°F7.3°C 67% Calm Calm -- 30.03 in1016.9 mb 0.01 in0.3 mm 0.12 in3.0 mm 0.39 in9.9 mm
04:50 PM 55.8°F13.2°C 45.0°F7.2°C 67% Calm Calm 3.0 mph4.8 kmh 30.03 in1016.9 mb 0.01 in0.3 mm 0.00 in0.0 mm 0.39 in9.9 mm
04:55 PM 55.8°F13.2°C 45.0°F7.2°C 67% Calm Calm -- 30.03 in1016.9 mb 0.01 in0.3 mm 0.00 in0.0 mm 0.39 in9.9 mm
05:00 PM 55.8°F13.2°C 45.0°F7.2°C 67% Calm Calm -- 30.02 in1016.6 mb 0.01 in0.3 mm 0.00 in0.0 mm 0.39 in9.9 mm
05:05 PM 55.8°F13.2°C 45.0°F7.2°C 67% Calm Calm -- 30.02 in1016.6 mb 0.01 in0.3 mm 0.00 in0.0 mm 0.39 in9.9 mm
05:10 PM 55.8°F13.2°C 45.0°F7.2°C 67% Calm Calm 5.0 mph8.0 kmh 30.02 in1016.6 mb 0.01 in0.3 mm 0.00 in0.0 mm 0.39 in9.9 mm
05:15 PM 56.0°F13.3°C 44.8°F7.1°C 66% 3.0 mph NE4.8 kmh NE 6.0 mph9.7 kmh 30.01 in1016.3 mb 0.01 in0.3 mm 0.00 in0.0 mm 0.39 in9.9 mm
05:20 PM 55.9°F13.3°C 45.1°F7.3°C 67% 2.0 mph NNE3.2 kmh NNE 7.0 mph11.3 kmh 30.01 in1016.3 mb 0.01 in0.3 mm 0.00 in0.0 mm 0.39 in9.9 mm
05:25 PM 55.9°F13.3°C 44.7°F7.1°C 66% Calm Calm 5.0 mph8.0 kmh 30.01 in1016.3 mb 0.01 in0.3 mm 0.00 in0.0 mm 0.39 in9.9 mm
05:30 PM 55.8°F13.2°C 44.6°F7.0°C 66% 6.0 mph NE9.7 kmh NE 9.0 mph14.5 kmh 30.01 in1016.3 mb 0.01 in0.3 mm 0.00 in0.0 mm 0.39 in9.9 mm
05:35 PM 55.6°F13.1°C 44.4°F6.9°C 66% 5.0 mph NE8.0 kmh NE 11.0 mph17.7 kmh 30.01 in1016.3 mb 0.01 in0.3 mm 0.00 in0.0 mm 0.39 in9.9 mm
05:40 PM 55.5°F13.1°C 44.3°F6.8°C 66% Calm Calm 11.0 mph17.7 kmh 30.01 in1016.3 mb 0.01 in0.3 mm 0.00 in0.0 mm 0.39 in9.9 mm
05:45 PM 55.3°F12.9°C 44.1°F6.7°C 66% Calm Calm -- 30.02 in1016.6 mb 0.00 in0.0 mm 0.00 in0.0 mm 0.39 in9.9 mm
05:50 PM 55.3°F12.9°C 44.1°F6.7°C 66% Calm Calm -- 30.02 in1016.6 mb 0.00 in0.0 mm 0.00 in0.0 mm 0.39 in9.9 mm
05:55 PM 55.4°F13.0°C 44.2°F6.8°C 66% Calm Calm -- 30.02 in1016.6 mb 0.00 in0.0 mm 0.00 in0.0 mm 0.39 in9.9 mm
06:00 PM 55.4°F13.0°C 44.2°F6.8°C 66% Calm Calm -- 30.02 in1016.6 mb 0.00 in0.0 mm 0.00 in0.0 mm 0.39 in9.9 mm
06:05 PM 55.5°F13.1°C 44.3°F6.8°C 66% Calm Calm -- 30.01 in1016.3 mb 0.00 in0.0 mm 0.00 in0.0 mm 0.39 in9.9 mm
06:10 PM 55.5°F13.1°C 44.3°F6.8°C 66% Calm Calm -- 30.01 in1016.3 mb 0.00 in0.0 mm 0.00 in0.0 mm 0.39 in9.9 mm
06:15 PM 55.5°F13.1°C 44.3°F6.8°C 66% Calm Calm -- 30.01 in1016.3 mb 0.00 in0.0 mm 0.00 in0.0 mm 0.39 in9.9 mm
06:20 PM 55.5°F13.1°C 44.3°F6.8°C 66% Calm Calm -- 30.02 in1016.6 mb 0.00 in0.0 mm 0.00 in0.0 mm 0.39 in9.9 mm
06:25 PM 55.4°F13.0°C 44.2°F6.8°C 66% Calm Calm -- 30.02 in1016.6 mb 0.00 in0.0 mm 0.00 in0.0 mm 0.39 in9.9 mm
06:30 PM 55.3°F12.9°C 44.1°F6.7°C 66% Calm Calm -- 30.02 in1016.6 mb 0.00 in0.0 mm 0.00 in0.0 mm 0.39 in9.9 mm
06:35 PM 55.3°F12.9°C 44.1°F6.7°C 66% Calm Calm -- 30.02 in1016.6 mb 0.00 in0.0 mm 0.00 in0.0 mm 0.39 in9.9 mm
06:40 PM 55.3°F12.9°C 44.1°F6.7°C 66% Calm Calm -- 30.02 in1016.6 mb 0.00 in0.0 mm 0.00 in0.0 mm 0.39 in9.9 mm
06:45 PM 55.2°F12.9°C 44.0°F6.7°C 66% Calm Calm -- 30.02 in1016.6 mb 0.00 in0.0 mm 0.00 in0.0 mm 0.39 in9.9 mm
06:50 PM 55.2°F12.9°C 44.0°F6.7°C 66% Calm Calm -- 30.02 in1016.6 mb 0.00 in0.0 mm 0.00 in0.0 mm 0.39 in9.9 mm
06:55 PM 55.2°F12.9°C 44.0°F6.7°C 66% Calm Calm -- 30.02 in1016.6 mb 0.00 in0.0 mm 0.00 in0.0 mm 0.39 in9.9 mm
07:00 PM 55.1°F12.8°C 43.9°F6.6°C 66% Calm Calm -- 30.02 in1016.6 mb 0.00 in0.0 mm 0.00 in0.0 mm 0.39 in9.9 mm
07:05 PM 55.1°F12.8°C 43.9°F6.6°C 66% Calm Calm -- 30.02 in1016.6 mb 0.00 in0.0 mm 0.00 in0.0 mm 0.39 in9.9 mm
07:10 PM 55.1°F12.8°C 43.9°F6.6°C 66% Calm Calm -- 30.02 in1016.6 mb 0.00 in0.0 mm 0.00 in0.0 mm 0.39 in9.9 mm
07:15 PM 55.1°F12.8°C 43.9°F6.6°C 66% Calm Calm -- 30.02 in1016.6 mb 0.00 in0.0 mm 0.00 in0.0 mm 0.39 in9.9 mm
07:20 PM 55.1°F12.8°C 43.9°F6.6°C 66% Calm Calm -- 30.03 in1016.9 mb 0.00 in0.0 mm 0.00 in0.0 mm 0.39 in9.9 mm
07:25 PM 55.1°F12.8°C 43.9°F6.6°C 66% Calm Calm -- 30.03 in1016.9 mb 0.00 in0.0 mm 0.00 in0.0 mm 0.39 in9.9 mm
07:30 PM 55.2°F12.9°C 44.0°F6.7°C 66% Calm Calm -- 30.03 in1016.9 mb 0.00 in0.0 mm 0.00 in0.0 mm 0.39 in9.9 mm
07:35 PM 55.3°F12.9°C 44.1°F6.7°C 66% Calm Calm -- 30.03 in1016.9 mb 0.00 in0.0 mm 0.00 in0.0 mm 0.39 in9.9 mm
07:40 PM 55.4°F13.0°C 43.8°F6.6°C 65% Calm Calm -- 30.03 in1016.9 mb 0.00 in0.0 mm 0.00 in0.0 mm 0.39 in9.9 mm
07:45 PM 55.4°F13.0°C 44.2°F6.8°C 66% Calm Calm -- 30.03 in1016.9 mb 0.00 in0.0 mm 0.00 in0.0 mm 0.39 in9.9 mm
07:50 PM 55.5°F13.1°C 43.9°F6.6°C 65% Calm Calm -- 30.02 in1016.6 mb 0.00 in0.0 mm 0.00 in0.0 mm 0.39 in9.9 mm
07:55 PM 55.5°F13.1°C 43.9°F6.6°C 65% Calm Calm -- 30.02 in1016.6 mb 0.01 in0.3 mm 0.12 in3.0 mm 0.40 in10.2 mm
08:00 PM 55.5°F13.1°C 43.9°F6.6°C 65% Calm Calm -- 30.02 in1016.6 mb 0.01 in0.3 mm 0.00 in0.0 mm 0.40 in10.2 mm
08:05 PM 55.5°F13.1°C 43.9°F6.6°C 65% Calm Calm -- 30.02 in1016.6 mb 0.01 in0.3 mm 0.00 in0.0 mm 0.40 in10.2 mm
08:10 PM 55.5°F13.1°C 43.9°F6.6°C 65% Calm Calm -- 30.02 in1016.6 mb 0.01 in0.3 mm 0.00 in0.0 mm 0.40 in10.2 mm
08:15 PM 55.5°F13.1°C 43.9°F6.6°C 65% Calm Calm -- 30.02 in1016.6 mb 0.01 in0.3 mm 0.00 in0.0 mm 0.40 in10.2 mm
08:20 PM 55.5°F13.1°C 43.9°F6.6°C 65% Calm Calm -- 30.02 in1016.6 mb 0.01 in0.3 mm 0.00 in0.0 mm 0.40 in10.2 mm
08:25 PM 55.4°F13.0°C 43.8°F6.6°C 65% Calm Calm -- 30.02 in1016.6 mb 0.01 in0.3 mm 0.00 in0.0 mm 0.40 in10.2 mm
08:30 PM 55.3°F12.9°C 43.7°F6.5°C 65% Calm Calm -- 30.02 in1016.6 mb 0.01 in0.3 mm 0.00 in0.0 mm 0.40 in10.2 mm
08:35 PM 55.3°F12.9°C 43.7°F6.5°C 65% Calm Calm -- 30.02 in1016.6 mb 0.01 in0.3 mm 0.00 in0.0 mm 0.40 in10.2 mm
08:40 PM 55.2°F12.9°C 43.6°F6.4°C 65% Calm Calm -- 30.02 in1016.6 mb 0.01 in0.3 mm 0.00 in0.0 mm 0.40 in10.2 mm
08:45 PM 55.2°F12.9°C 43.6°F6.4°C 65% Calm Calm -- 30.02 in1016.6 mb 0.01 in0.3 mm 0.00 in0.0 mm 0.40 in10.2 mm
08:50 PM 55.3°F12.9°C 43.7°F6.5°C 65% Calm Calm -- 30.02 in1016.6 mb 0.01 in0.3 mm 0.00 in0.0 mm 0.40 in10.2 mm
08:55 PM 55.3°F12.9°C 43.7°F6.5°C 65% Calm Calm -- 30.02 in1016.6 mb 0.00 in0.0 mm 0.00 in0.0 mm 0.40 in10.2 mm
09:00 PM 55.2°F12.9°C 43.6°F6.4°C 65% Calm Calm -- 30.02 in1016.6 mb 0.00 in0.0 mm 0.00 in0.0 mm 0.40 in10.2 mm
09:05 PM 55.2°F12.9°C 43.6°F6.4°C 65% Calm Calm -- 30.02 in1016.6 mb 0.00 in0.0 mm 0.00 in0.0 mm 0.40 in10.2 mm
09:10 PM 55.1°F12.8°C 43.5°F6.4°C 65% Calm Calm -- 30.02 in1016.6 mb 0.00 in0.0 mm 0.00 in0.0 mm 0.40 in10.2 mm
09:15 PM 55.0°F12.8°C 43.4°F6.3°C 65% Calm Calm 5.0 mph8.0 kmh 30.02 in1016.6 mb 0.00 in0.0 mm 0.00 in0.0 mm 0.40 in10.2 mm
09:20 PM 54.9°F12.7°C 43.3°F6.3°C 65% Calm Calm 6.0 mph9.7 kmh 30.02 in1016.6 mb 0.00 in0.0 mm 0.00 in0.0 mm 0.40 in10.2 mm
09:25 PM 54.8°F12.7°C 43.2°F6.2°C 65% Calm Calm 4.0 mph6.4 kmh 30.02 in1016.6 mb 0.00 in0.0 mm 0.00 in0.0 mm 0.40 in10.2 mm
09:30 PM 54.8°F12.7°C 43.2°F6.2°C 65% Calm Calm -- 30.02 in1016.6 mb 0.01 in0.3 mm 0.12 in3.0 mm 0.41 in10.4 mm
09:35 PM 54.8°F12.7°C 43.2°F6.2°C 65% 3.0 mph NNE4.8 kmh NNE 7.0 mph11.3 kmh 30.02 in1016.6 mb 0.01 in0.3 mm 0.00 in0.0 mm 0.41 in10.4 mm
09:40 PM 54.7°F12.6°C 43.1°F6.2°C 65% Calm Calm 6.0 mph9.7 kmh 30.02 in1016.6 mb 0.02 in0.5 mm 0.12 in3.0 mm 0.42 in10.7 mm
09:45 PM 54.6°F12.6°C 43.0°F6.1°C 65% Calm Calm -- 30.02 in1016.6 mb 0.02 in0.5 mm 0.00 in0.0 mm 0.43 in10.9 mm
09:50 PM 54.6°F12.6°C 43.0°F6.1°C 65% Calm Calm -- 30.02 in1016.6 mb 0.02 in0.5 mm 0.00 in0.0 mm 0.43 in10.9 mm
09:55 PM 54.5°F12.5°C 42.9°F6.1°C 65% Calm Calm 5.0 mph8.0 kmh 30.02 in1016.6 mb 0.02 in0.5 mm 0.00 in0.0 mm 0.43 in10.9 mm
10:00 PM 54.3°F12.4°C 42.7°F5.9°C 65% Calm Calm -- 30.02 in1016.6 mb 0.03 in0.8 mm 0.01 in0.3 mm 0.43 in10.9 mm
10:05 PM 54.2°F12.3°C 42.6°F5.9°C 65% Calm Calm -- 30.02 in1016.6 mb 0.03 in0.8 mm 0.00 in0.0 mm 0.43 in10.9 mm
10:10 PM 53.9°F12.2°C 42.4°F5.8°C 65% Calm Calm -- 30.02 in1016.6 mb 0.03 in0.8 mm 0.00 in0.0 mm 0.43 in10.9 mm
10:15 PM 53.7°F12.1°C 42.6°F5.9°C 66% Calm Calm 8.0 mph12.9 kmh 30.02 in1016.6 mb 0.03 in0.8 mm 0.00 in0.0 mm 0.43 in10.9 mm
10:20 PM 53.3°F11.8°C 42.2°F5.7°C 66% Calm Calm 9.0 mph14.5 kmh 30.03 in1016.9 mb 0.03 in0.8 mm 0.00 in0.0 mm 0.43 in10.9 mm
10:25 PM 53.2°F11.8°C 42.1°F5.6°C 66% Calm Calm -- 30.02 in1016.6 mb 0.04 in1.0 mm 0.12 in3.0 mm 0.44 in11.2 mm
10:30 PM 53.2°F11.8°C 42.1°F5.6°C 66% Calm Calm -- 30.02 in1016.6 mb 0.03 in0.8 mm 0.00 in0.0 mm 0.44 in11.2 mm
10:35 PM 53.2°F11.8°C 42.1°F5.6°C 66% Calm Calm -- 30.02 in1016.6 mb 0.03 in0.8 mm 0.00 in0.0 mm 0.44 in11.2 mm
10:40 PM 53.2°F11.8°C 42.1°F5.6°C 66% Calm Calm -- 30.02 in1016.6 mb 0.02 in0.5 mm 0.00 in0.0 mm 0.44 in11.2 mm
10:45 PM 53.2°F11.8°C 42.1°F5.6°C 66% Calm Calm -- 30.03 in1016.9 mb 0.02 in0.5 mm 0.00 in0.0 mm 0.44 in11.2 mm
10:50 PM 53.2°F11.8°C 42.1°F5.6°C 66% Calm Calm -- 30.03 in1016.9 mb 0.02 in0.5 mm 0.00 in0.0 mm 0.44 in11.2 mm
10:55 PM 53.2°F11.8°C 42.1°F5.6°C 66% Calm Calm -- 30.03 in1016.9 mb 0.02 in0.5 mm 0.00 in0.0 mm 0.44 in11.2 mm
11:00 PM 53.2°F11.8°C 42.1°F5.6°C 66% Calm Calm -- 30.03 in1016.9 mb 0.01 in0.3 mm 0.00 in0.0 mm 0.44 in11.2 mm
11:05 PM 53.3°F11.8°C 41.8°F5.4°C 65% Calm Calm -- 30.03 in1016.9 mb 0.01 in0.3 mm 0.00 in0.0 mm 0.34 in8.6 mm
11:10 PM 53.4°F11.9°C 42.3°F5.7°C 66% Calm Calm -- 30.03 in1016.9 mb 0.01 in0.3 mm 0.00 in0.0 mm 0.34 in8.6 mm
11:15 PM 53.3°F11.8°C 42.2°F5.7°C 66% Calm Calm -- 30.02 in1016.6 mb 0.01 in0.3 mm 0.00 in0.0 mm 0.34 in8.6 mm
11:20 PM 53.3°F11.8°C 41.8°F5.4°C 65% Calm Calm -- 30.02 in1016.6 mb 0.01 in0.3 mm 0.00 in0.0 mm 0.34 in8.6 mm
11:25 PM 53.3°F11.8°C 41.8°F5.4°C 65% Calm Calm -- 30.02 in1016.6 mb 0.00 in0.0 mm 0.00 in0.0 mm 0.34 in8.6 mm
11:30 PM 53.2°F11.8°C 41.7°F5.4°C 65% Calm Calm 4.0 mph6.4 kmh 30.02 in1016.6 mb 0.00 in0.0 mm 0.00 in0.0 mm 0.34 in8.6 mm
11:35 PM 53.2°F11.8°C 41.7°F5.4°C 65% Calm Calm -- 30.02 in1016.6 mb 0.00 in0.0 mm 0.00 in0.0 mm 0.34 in8.6 mm
11:40 PM 53.2°F11.8°C 41.7°F5.4°C 65% Calm Calm -- 30.02 in1016.6 mb 0.00 in0.0 mm 0.00 in0.0 mm 0.34 in8.6 mm
11:45 PM 53.2°F11.8°C 41.7°F5.4°C 65% Calm Calm -- 30.02 in1016.6 mb 0.00 in0.0 mm 0.00 in0.0 mm 0.34 in8.6 mm
11:50 PM 53.2°F11.8°C 41.7°F5.4°C 65% Calm Calm -- 30.02 in1016.6 mb 0.00 in0.0 mm 0.00 in0.0 mm 0.34 in8.6 mm
11:55 PM 53.2°F11.8°C 41.7°F5.4°C 65% Calm Calm -- 30.02 in1016.6 mb 0.00 in0.0 mm 0.00 in0.0 mm 0.34 in8.6 mm